createdAt,value
2023-02-23T00:00:45.026Z,-1.26
2023-02-23T00:03:22.469Z,-1.30
2023-02-23T00:06:13.429Z,-1.35
2023-02-23T00:08:44.359Z,-1.36
2023-02-23T00:11:14.813Z,-1.41
2023-02-23T00:13:53.048Z,-1.46
2023-02-23T00:16:25.585Z,-1.48
2023-02-23T00:19:02.711Z,-1.46
2023-02-23T00:21:40.526Z,-1.45
2023-02-23T00:24:33.761Z,-1.50
2023-02-23T00:27:07.016Z,-1.56
2023-02-23T00:29:50.086Z,-1.60
2023-02-23T00:32:22.669Z,-1.62
2023-02-23T00:34:54.045Z,-1.66
2023-02-23T00:37:23.861Z,-1.65
2023-02-23T00:39:53.182Z,-1.64
2023-02-23T00:42:25.117Z,-1.65
2023-02-23T00:44:59.447Z,-1.66
2023-02-23T00:47:35.917Z,-1.66
2023-02-23T00:50:14.993Z,-1.67
2023-02-23T00:52:52.867Z,-1.64
2023-02-23T00:55:42.880Z,-1.63
2023-02-23T00:58:18.796Z,-1.63
2023-02-23T01:00:57.617Z,-1.61
2023-02-23T01:03:27.323Z,-1.59
2023-02-23T01:06:05.556Z,-1.59
2023-02-23T01:08:35.394Z,-1.61
2023-02-23T01:11:21.567Z,-1.62
2023-02-23T01:13:53.697Z,-1.71
2023-02-23T01:16:35.964Z,-1.73
2023-02-23T01:19:16.430Z,-1.73
2023-02-23T01:21:48.583Z,-1.65
2023-02-23T01:24:19.331Z,-1.61
2023-02-23T01:26:52.600Z,-1.60
2023-02-23T01:29:28.966Z,-1.56
2023-02-23T01:32:07.508Z,-1.58
2023-02-23T01:34:37.157Z,-1.58
2023-02-23T01:37:09.764Z,-1.55
2023-02-23T01:39:38.912Z,-1.61
2023-02-23T01:42:14.615Z,-1.64
2023-02-23T01:45:23.899Z,-1.68
2023-02-23T01:48:03.788Z,-1.73
2023-02-23T01:50:40.058Z,-1.78
2023-02-23T01:53:15.670Z,-1.81
2023-02-23T01:55:50.006Z,-1.81
2023-02-23T01:58:31.926Z,-1.82
2023-02-23T02:01:09.988Z,-1.82
2023-02-23T02:03:45.728Z,-1.86
2023-02-23T02:06:18.868Z,-1.91
2023-02-23T02:08:56.222Z,-1.88
2023-02-23T02:11:36.709Z,-1.86
2023-02-23T02:14:13.069Z,-1.90
2023-02-23T02:17:02.810Z,-1.98
2023-02-23T02:20:01.067Z,-2.04
2023-02-23T02:22:46.658Z,-2.09
2023-02-23T02:25:33.016Z,-2.23
2023-02-23T02:28:45.846Z,-2.33
2023-02-23T02:31:55.137Z,-2.38
2023-02-23T02:34:59.122Z,-2.46
2023-02-23T02:38:02.063Z,-2.57
2023-02-23T02:40:58.615Z,-2.64
2023-02-23T02:43:40.719Z,-2.73
2023-02-23T02:46:23.687Z,-2.79
2023-02-23T02:49:06.684Z,-2.79
2023-02-23T02:51:43.175Z,-2.81
2023-02-23T02:54:30.564Z,-2.84
2023-02-23T02:57:09.826Z,-2.88
2023-02-23T03:00:10.629Z,-2.92
2023-02-23T03:02:59.766Z,-3.00
2023-02-23T03:05:53.568Z,-3.06
2023-02-23T03:08:54.908Z,-3.06
2023-02-23T03:11:59.510Z,-3.05
2023-02-23T03:14:53.006Z,-3.08
2023-02-23T03:17:57.593Z,-3.14
2023-02-23T03:21:02.095Z,-3.21
2023-02-23T03:24:13.032Z,-3.27
2023-02-23T03:27:15.925Z,-3.31
2023-02-23T03:30:22.917Z,-3.35
2023-02-23T03:33:12.997Z,-3.37
2023-02-23T03:36:10.572Z,-3.45
2023-02-23T03:39:01.876Z,-3.47
2023-02-23T03:41:49.799Z,-3.51
2023-02-23T03:44:50.433Z,-3.53
2023-02-23T03:47:41.714Z,-3.53
2023-02-23T03:50:50.765Z,-3.55
2023-02-23T03:53:46.832Z,-3.56
2023-02-23T03:56:39.119Z,-3.57
2023-02-23T03:59:28.006Z,-3.58
2023-02-23T04:02:23.002Z,-3.55
2023-02-23T04:05:17.861Z,-3.54
2023-02-23T04:08:07.956Z,-3.49
2023-02-23T04:10:58.773Z,-3.53
2023-02-23T04:13:30.912Z,-3.57
2023-02-23T04:16:01.673Z,-3.58
2023-02-23T04:18:36.201Z,-3.58
2023-02-23T04:21:11.042Z,-3.57
2023-02-23T04:23:47.551Z,-3.60
2023-02-23T04:26:16.102Z,-3.60
2023-02-23T04:28:50.768Z,-3.60
2023-02-23T04:31:27.300Z,-3.58
2023-02-23T04:34:02.972Z,-3.54
2023-02-23T04:36:36.836Z,-3.51
2023-02-23T04:39:07.862Z,-3.50
2023-02-23T04:41:36.954Z,-3.48
2023-02-23T04:44:06.636Z,-3.47
2023-02-23T04:46:35.796Z,-3.42
2023-02-23T04:49:06.571Z,-3.36
2023-02-23T04:51:37.051Z,-3.31
2023-02-23T04:54:14.021Z,-3.25
2023-02-23T04:56:44.520Z,-3.19
2023-02-23T04:59:21.041Z,-3.13
2023-02-23T05:01:53.127Z,-3.08
2023-02-23T05:04:30.045Z,-3.02
2023-02-23T05:07:03.158Z,-2.95
2023-02-23T05:09:46.541Z,-2.90
2023-02-23T05:13:06.082Z,-2.86
2023-02-23T05:15:38.889Z,-2.81
2023-02-23T05:18:20.092Z,-2.75
2023-02-23T05:21:12.744Z,-2.75
2023-02-23T05:24:20.763Z,-2.71
2023-02-23T05:28:23.974Z,-2.74
2023-02-23T09:55:56.608Z,14.72
2023-02-23T09:58:53.079Z,14.16
2023-02-23T10:28:37.833Z,15.32
2023-02-23T14:49:55.914Z,7.16
2023-02-23T14:52:26.319Z,7.09
2023-02-23T14:55:22.302Z,7.04
2023-02-23T14:57:52.673Z,6.95
2023-02-23T15:00:25.522Z,6.85
2023-02-23T15:02:57.354Z,6.79
2023-02-23T15:05:28.270Z,6.73
2023-02-23T15:08:00.670Z,6.59
2023-02-23T15:10:36.510Z,6.53
2023-02-23T15:13:11.729Z,6.46
2023-02-23T15:15:45.581Z,6.38
2023-02-23T15:18:23.514Z,6.33
2023-02-23T15:21:34.000Z,6.25
2023-02-23T15:24:06.164Z,6.09
2023-02-23T15:26:38.090Z,6.00
2023-02-23T15:29:15.097Z,5.97
2023-02-23T15:31:50.347Z,5.90
2023-02-23T15:34:21.538Z,5.85
2023-02-23T15:36:55.109Z,5.76
2023-02-23T15:39:35.569Z,5.70
2023-02-23T15:42:06.553Z,5.63
2023-02-23T15:44:44.155Z,5.56
2023-02-23T15:47:19.684Z,5.48
2023-02-23T15:49:50.441Z,5.40
2023-02-23T15:52:23.441Z,5.29
2023-02-23T15:54:56.994Z,5.20
2023-02-23T15:57:33.236Z,5.13
2023-02-23T16:00:07.659Z,5.08
2023-02-23T16:02:38.093Z,4.99
2023-02-23T16:05:21.230Z,4.91
2023-02-23T16:08:05.759Z,4.86
2023-02-23T16:10:46.381Z,4.81
2023-02-23T16:13:21.526Z,4.76
2023-02-23T16:15:52.740Z,4.66
2023-02-23T16:18:27.712Z,4.64
2023-02-23T16:21:01.595Z,4.61
2023-02-23T16:23:34.375Z,4.58
2023-02-23T16:26:10.935Z,4.53
2023-02-23T16:28:46.641Z,4.48
2023-02-23T16:31:25.961Z,4.31
2023-02-23T16:33:57.577Z,4.18
2023-02-23T16:36:36.887Z,4.08
2023-02-23T16:39:12.871Z,4.00
2023-02-23T16:41:41.619Z,3.95
2023-02-23T16:44:21.737Z,3.90
2023-02-23T16:47:26.040Z,3.76
2023-02-23T16:49:54.781Z,3.65
2023-02-23T16:52:25.934Z,3.54
2023-02-23T16:54:56.001Z,3.46
2023-02-23T16:57:28.538Z,3.35
2023-02-23T16:59:58.718Z,3.29
2023-02-23T17:02:27.441Z,3.23
2023-02-23T17:04:59.188Z,3.17
2023-02-23T17:07:27.399Z,3.11
2023-02-23T17:09:55.738Z,3.07
2023-02-23T17:12:24.171Z,3.04
2023-02-23T17:14:52.545Z,2.99
2023-02-23T17:17:22.910Z,2.95
2023-02-23T17:19:51.504Z,2.89
2023-02-23T17:22:19.956Z,2.84
2023-02-23T17:24:48.819Z,2.80
2023-02-23T17:27:18.108Z,2.75
2023-02-23T17:29:48.786Z,2.72
2023-02-23T17:32:18.038Z,2.70
2023-02-23T17:34:50.293Z,2.64
2023-02-23T17:37:20.412Z,2.57
2023-02-23T17:39:49.798Z,2.51
2023-02-23T17:42:19.590Z,2.45
2023-02-23T17:44:48.785Z,2.41
2023-02-23T17:47:19.418Z,2.37
2023-02-23T17:49:49.451Z,2.32
2023-02-23T17:52:20.669Z,2.25
2023-02-23T17:54:49.165Z,2.20
2023-02-23T17:57:17.934Z,2.16
2023-02-23T17:59:46.386Z,2.09
2023-02-23T18:02:16.955Z,2.05
2023-02-23T18:04:46.121Z,2.02
2023-02-23T18:07:16.281Z,1.98
2023-02-23T18:09:45.215Z,1.94
2023-02-23T18:12:14.526Z,1.90
2023-02-23T18:14:43.502Z,1.86
2023-02-23T18:17:12.285Z,1.87
2023-02-23T18:19:40.594Z,1.87
2023-02-23T18:22:09.660Z,1.82
2023-02-23T18:24:39.738Z,1.79
2023-02-23T18:27:08.442Z,1.74
2023-02-23T18:29:37.765Z,1.68
2023-02-23T18:32:07.938Z,1.65
2023-02-23T18:34:37.691Z,1.61
2023-02-23T18:37:10.342Z,1.58
2023-02-23T18:39:40.204Z,1.55
2023-02-23T18:42:08.655Z,1.52
2023-02-23T18:44:37.156Z,1.52
2023-02-23T18:47:05.472Z,1.52
2023-02-23T18:49:33.925Z,1.52
2023-02-23T18:52:05.597Z,1.52
2023-02-23T18:54:34.801Z,1.50
2023-02-23T18:57:05.796Z,1.48
2023-02-23T18:59:34.638Z,1.47
2023-02-23T19:02:03.228Z,1.46
2023-02-23T19:04:31.728Z,1.46
2023-02-23T19:07:00.128Z,1.49
2023-02-23T19:09:28.413Z,1.51
2023-02-23T19:11:56.725Z,1.54
2023-02-23T19:14:47.841Z,1.52
2023-02-23T19:17:15.929Z,1.52
2023-02-23T19:19:44.629Z,1.56
2023-02-23T19:22:13.333Z,1.62
2023-02-23T19:24:42.003Z,1.70
2023-02-23T19:27:11.691Z,1.78
2023-02-23T19:29:41.855Z,1.88
2023-02-23T19:32:11.064Z,1.97
2023-02-23T19:34:40.532Z,2.05
2023-02-23T19:37:09.480Z,2.12
2023-02-23T19:39:38.295Z,2.19
2023-02-23T19:42:07.495Z,2.24
2023-02-23T19:44:36.526Z,2.29
2023-02-23T19:47:06.520Z,2.33
2023-02-23T19:49:34.969Z,2.40
2023-02-23T19:52:03.440Z,2.47
2023-02-23T19:54:34.173Z,2.52
2023-02-23T19:57:04.270Z,2.58
2023-02-23T19:59:32.995Z,2.64
2023-02-23T20:02:01.762Z,2.71
2023-02-23T20:04:31.829Z,2.78
2023-02-23T20:07:00.327Z,2.84
2023-02-23T20:09:31.222Z,2.92
2023-02-23T20:11:59.779Z,2.98
2023-02-23T20:14:28.529Z,3.05
2023-02-23T20:16:57.244Z,3.11
2023-02-23T20:19:25.983Z,3.14
2023-02-23T20:21:57.390Z,3.19
2023-02-23T20:24:25.843Z,3.23
2023-02-23T20:26:58.265Z,3.28
2023-02-23T20:29:28.396Z,3.34
2023-02-23T20:32:00.089Z,3.43
2023-02-23T20:34:29.257Z,3.47
2023-02-23T20:36:59.363Z,3.49
2023-02-23T20:39:27.941Z,3.49
2023-02-23T20:41:56.409Z,3.52
2023-02-23T20:44:26.508Z,3.57
2023-02-23T20:46:54.936Z,3.61
2023-02-23T20:49:25.501Z,3.66
2023-02-23T20:51:54.557Z,3.69
2023-02-23T20:54:25.665Z,3.72
2023-02-23T20:57:00.245Z,3.76
2023-02-23T20:59:32.939Z,3.80
2023-02-23T21:02:04.602Z,3.84
2023-02-23T21:04:35.650Z,3.91
2023-02-23T21:07:05.594Z,3.97
2023-02-23T21:09:35.798Z,4.02
2023-02-23T21:12:05.004Z,4.07
2023-02-23T21:14:35.497Z,4.10
2023-02-23T21:17:05.512Z,4.13
2023-02-23T21:19:34.634Z,4.15
2023-02-23T21:22:03.255Z,4.19
2023-02-23T21:24:33.986Z,4.22
2023-02-23T21:27:05.599Z,4.25
2023-02-23T21:29:34.282Z,4.26
2023-02-23T21:32:03.113Z,4.26
2023-02-23T21:34:32.104Z,4.25
2023-02-23T21:37:01.177Z,4.27
2023-02-23T21:39:30.659Z,4.25
2023-02-23T21:41:59.793Z,4.25
2023-02-23T21:44:29.700Z,4.26
2023-02-23T21:46:58.155Z,4.26
2023-02-23T21:49:26.820Z,4.24
2023-02-23T21:51:57.971Z,4.25
2023-02-23T21:54:26.917Z,4.27
2023-02-23T21:56:55.410Z,4.27
2023-02-23T21:59:24.216Z,4.24
2023-02-23T22:01:54.139Z,4.26
2023-02-23T22:04:22.550Z,4.27
2023-02-23T22:06:50.953Z,4.27
2023-02-23T22:09:19.447Z,4.26
2023-02-23T22:11:48.843Z,4.26
2023-02-23T22:14:18.169Z,4.27
2023-02-23T22:16:47.907Z,4.29
2023-02-23T22:19:19.104Z,4.33
2023-02-23T22:21:49.079Z,4.34
2023-02-23T22:24:18.273Z,4.35
2023-02-23T22:26:50.693Z,4.38
2023-02-23T22:29:19.348Z,4.42
2023-02-23T22:31:47.734Z,4.43
2023-02-23T22:34:18.566Z,4.47
2023-02-23T22:36:48.551Z,4.50
2023-02-23T22:39:18.789Z,4.52
2023-02-23T22:41:48.018Z,4.54
2023-02-23T22:44:18.917Z,4.54
2023-02-23T22:46:48.438Z,4.54
2023-02-23T22:49:20.077Z,4.56
2023-02-23T22:51:48.521Z,4.57
2023-02-23T22:54:17.585Z,4.58
2023-02-23T22:56:47.064Z,4.58
2023-02-23T22:59:17.702Z,4.59
2023-02-23T23:01:48.996Z,4.57
2023-02-23T23:04:22.184Z,4.60
2023-02-23T23:06:51.747Z,4.61
2023-02-23T23:09:21.292Z,4.64
2023-02-23T23:11:51.353Z,4.69
2023-02-23T23:14:20.793Z,4.76
2023-02-23T23:16:49.883Z,4.79
2023-02-23T23:19:24.385Z,4.84
2023-02-23T23:21:55.951Z,4.92
2023-02-23T23:24:26.655Z,4.95
2023-02-23T23:27:00.546Z,4.96
2023-02-23T23:29:30.600Z,4.97
2023-02-23T23:31:59.424Z,4.98
2023-02-23T23:34:33.874Z,4.98
2023-02-23T23:37:03.113Z,4.96
2023-02-23T23:39:32.374Z,4.94
2023-02-23T23:42:02.660Z,4.90
2023-02-23T23:44:34.021Z,4.82
2023-02-23T23:47:05.366Z,4.78
2023-02-23T23:49:39.220Z,4.75
2023-02-23T23:52:08.309Z,4.73
2023-02-23T23:54:39.447Z,4.71
2023-02-23T23:57:11.864Z,4.69
2023-02-23T23:59:46.480Z,4.64
